Heage, United Kingdom
Current Conditions -  °F | °C
As of 11:50 PM on Wednesday 28 Jan 2015 (Local Time) from EGNX Reporting Station
Broken Clouds Broken Clouds  
Wind Chill: 22°   Ceiling: 3800
Heat Index: 34°   Visibility: 6mi
Dew Point: 32°   Wind: 22mph
Humidity: 93%   Direction: 240°WSW
Pressure: 29.32"   Gusts: NA
Location:  53.05°N, 1.45°W
Report Text: EGNX 282350Z 24019KT 9999 FEW011 SCT018 BKN038 01/00 Q0993
Loading
Personal Weather Stations






























Interactive Weather Map New forecast layout! Learn more

10-Day Weather Forecast

Advertisements
Track Severe Weather on mobile